Johnson County (6A4)
Johnson County, TN
Field Elevation: 2240
Lat: 36°25.07N  Long: 81°49.51W
CTAF/Unicom Freq: 122.7000
   
    
Weather Advisories
2018-02-21   20:28 Z
Altimeter 30.36" Hg
Wind 190° @ 5 KT
Gusts 15 KT
Visibility 10 SM
Ceiling SCT052
Temperature 24° C (75° F)
Dewpoint 13° C (55° F)
Relative Humidity 52%
Density Altitude 3,300 feet
Condensation Altitude 7,800 feet
Wind and Runways
Indicated Runway = 24
Headwind = 3 kt
Crosswind = 4 kt
History
 
 
 
More Info
NOAA Forecast
 
 
About Us
Belfort Instrument
 
 
FAA Disclaimer: The data displayed is for advisory purposes only and is not to be used for flight planning or operations. For official data, please call (not available) to hear the current automated AWOS voice message.
  METAR 6A4 212028Z AUTO 19005G15KT 10 SM SCT052 24/13 A3036